sensor_id;sensor_type;location;lat;lon;timestamp;pressure;altitude;pressure_sealevel;temperature;humidity
65173;BME280;69059;52.218;5.172;2023-05-29T00:02:27;101743.84;;;11.79;100.00
65173;BME280;69059;52.218;5.172;2023-05-29T00:04:56;101756.59;;;11.82;100.00
65173;BME280;69059;52.218;5.172;2023-05-29T00:07:24;101776.88;;;11.97;100.00
65173;BME280;69059;52.218;5.172;2023-05-29T00:09:52;101767.88;;;11.83;100.00
65173;BME280;69059;52.218;5.172;2023-05-29T00:12:19;101790.31;;;11.86;100.00
65173;BME280;69059;52.218;5.172;2023-05-29T00:14:48;101796.34;;;11.86;100.00
65173;BME280;69059;52.218;5.172;2023-05-29T00:17:16;101815.50;;;11.87;100.00
65173;BME280;69059;52.218;5.172;2023-05-29T00:19:44;101801.22;;;11.65;100.00
65173;BME280;69059;52.218;5.172;2023-05-29T00:22:13;101836.06;;;11.81;100.00
65173;BME280;69059;52.218;5.172;2023-05-29T00:24:40;101835.25;;;11.81;100.00
65173;BME280;69059;52.218;5.172;2023-05-29T00:27:08;101835.41;;;11.79;100.00
65173;BME280;69059;52.218;5.172;2023-05-29T00:29:36;101843.72;;;11.75;100.00
65173;BME280;69059;52.218;5.172;2023-05-29T00:32:05;101845.03;;;11.63;100.00
65173;BME280;69059;52.218;5.172;2023-05-29T00:34:33;101839.44;;;11.58;100.00
65173;BME280;69059;52.218;5.172;2023-05-29T00:37:00;101840.91;;;11.60;100.00
65173;BME280;69059;52.218;5.172;2023-05-29T00:39:30;101865.75;;;11.56;100.00
65173;BME280;69059;52.218;5.172;2023-05-29T00:41:58;101877.53;;;11.60;100.00
65173;BME280;69059;52.218;5.172;2023-05-29T00:44:26;101879.31;;;11.52;100.00
65173;BME280;69059;52.218;5.172;2023-05-29T00:46:54;101880.28;;;11.51;100.00
65173;BME280;69059;52.218;5.172;2023-05-29T00:49:22;101882.25;;;11.48;100.00
65173;BME280;69059;52.218;5.172;2023-05-29T00:51:51;101880.75;;;11.46;100.00
65173;BME280;69059;52.218;5.172;2023-05-29T00:54:26;101881.72;;;11.37;100.00
65173;BME280;69059;52.218;5.172;2023-05-29T00:56:56;101866.34;;;11.34;100.00
65173;BME280;69059;52.218;5.172;2023-05-29T00:59:26;101863.88;;;11.32;100.00
65173;BME280;69059;52.218;5.172;2023-05-29T01:01:54;101888.25;;;11.41;100.00
65173;BME280;69059;52.218;5.172;2023-05-29T01:04:23;101884.28;;;11.29;100.00
65173;BME280;69059;52.218;5.172;2023-05-29T01:06:51;101887.91;;;11.36;100.00
65173;BME280;69059;52.218;5.172;2023-05-29T01:09:19;101892.31;;;11.35;100.00
65173;BME280;69059;52.218;5.172;2023-05-29T01:11:52;101904.44;;;11.36;100.00
65173;BME280;69059;52.218;5.172;2023-05-29T01:14:29;101903.25;;;11.31;100.00
65173;BME280;69059;52.218;5.172;2023-05-29T01:17:07;101889.19;;;11.24;100.00
65173;BME280;69059;52.218;5.172;2023-05-29T01:20:01;101883.28;;;11.22;100.00
65173;BME280;69059;52.218;5.172;2023-05-29T01:22:49;101879.81;;;11.13;100.00
65173;BME280;69059;52.218;5.172;2023-05-29T01:25:27;101876.38;;;11.12;100.00
65173;BME280;69059;52.218;5.172;2023-05-29T01:28:00;101872.47;;;11.17;100.00
65173;BME280;69059;52.218;5.172;2023-05-29T01:30:30;101883.75;;;11.17;100.00
65173;BME280;69059;52.218;5.172;2023-05-29T01:32:58;101890.75;;;11.17;100.00
65173;BME280;69059;52.218;5.172;2023-05-29T01:35:26;101888.16;;;11.17;100.00
65173;BME280;69059;52.218;5.172;2023-05-29T01:37:54;101896.81;;;11.17;100.00
65173;BME280;69059;52.218;5.172;2023-05-29T01:40:22;101904.50;;;11.19;100.00
65173;BME280;69059;52.218;5.172;2023-05-29T01:42:50;101889.75;;;11.09;100.00
65173;BME280;69059;52.218;5.172;2023-05-29T01:45:19;101872.88;;;10.96;100.00
65173;BME280;69059;52.218;5.172;2023-05-29T01:47:47;101877.44;;;11.02;100.00
65173;BME280;69059;52.218;5.172;2023-05-29T01:50:17;101876.69;;;11.09;100.00
65173;BME280;69059;52.218;5.172;2023-05-29T01:52:45;101883.34;;;11.04;100.00
65173;BME280;69059;52.218;5.172;2023-05-29T01:55:13;101851.13;;;10.95;100.00
65173;BME280;69059;52.218;5.172;2023-05-29T01:57:41;101843.56;;;10.84;100.00
65173;BME280;69059;52.218;5.172;2023-05-29T02:00:10;101876.00;;;10.99;100.00
65173;BME280;69059;52.218;5.172;2023-05-29T02:02:40;101872.34;;;10.92;100.00
65173;BME280;69059;52.218;5.172;2023-05-29T02:05:08;101844.53;;;10.83;100.00
65173;BME280;69059;52.218;5.172;2023-05-29T02:07:38;101843.88;;;10.81;100.00
65173;BME280;69059;52.218;5.172;2023-05-29T02:10:06;101858.63;;;10.90;100.00
65173;BME280;69059;52.218;5.172;2023-05-29T02:12:34;101857.97;;;10.88;100.00
65173;BME280;69059;52.218;5.172;2023-05-29T02:15:02;101816.84;;;10.64;100.00
65173;BME280;69059;52.218;5.172;2023-05-29T02:17:29;101795.13;;;10.64;100.00
65173;BME280;69059;52.218;5.172;2023-05-29T02:19:59;101808.59;;;10.77;100.00
65173;BME280;69059;52.218;5.172;2023-05-29T02:22:26;101823.44;;;10.76;100.00
65173;BME280;69059;52.218;5.172;2023-05-29T02:24:54;101822.97;;;10.81;100.00
65173;BME280;69059;52.218;5.172;2023-05-29T02:27:22;101816.59;;;10.75;100.00
65173;BME280;69059;52.218;5.172;2023-05-29T02:29:50;101816.13;;;10.80;100.00
65173;BME280;69059;52.218;5.172;2023-05-29T02:32:17;101791.72;;;10.63;100.00
65173;BME280;69059;52.218;5.172;2023-05-29T02:34:45;101805.63;;;10.72;100.00
65173;BME280;69059;52.218;5.172;2023-05-29T02:37:15;101804.78;;;10.63;100.00
65173;BME280;69059;52.218;5.172;2023-05-29T02:39:42;101803.16;;;10.62;100.00
65173;BME280;69059;52.218;5.172;2023-05-29T02:42:10;101778.41;;;10.49;100.00
65173;BME280;69059;52.218;5.172;2023-05-29T02:44:38;101754.56;;;10.44;100.00
65173;BME280;69059;52.218;5.172;2023-05-29T02:47:06;101765.41;;;10.57;100.00
65173;BME280;69059;52.218;5.172;2023-05-29T02:49:33;101757.09;;;10.61;100.00
65173;BME280;69059;52.218;5.172;2023-05-29T02:52:01;101774.72;;;10.59;100.00
65173;BME280;69059;52.218;5.172;2023-05-29T02:54:30;101780.53;;;10.53;100.00
65173;BME280;69059;52.218;5.172;2023-05-29T02:56:58;101799.03;;;10.60;100.00
65173;BME280;69059;52.218;5.172;2023-05-29T02:59:26;101793.97;;;10.58;100.00
65173;BME280;69059;52.218;5.172;2023-05-29T03:01:54;101801.28;;;10.55;100.00
65173;BME280;69059;52.218;5.172;2023-05-29T03:04:22;101785.44;;;10.48;100.00
65173;BME280;69059;52.218;5.172;2023-05-29T03:06:49;101785.59;;;10.47;100.00
65173;BME280;69059;52.218;5.172;2023-05-29T03:09:19;101784.91;;;10.45;100.00
65173;BME280;69059;52.218;5.172;2023-05-29T03:11:48;101807.97;;;10.49;100.00
65173;BME280;69059;52.218;5.172;2023-05-29T03:14:17;101766.38;;;10.30;100.00
65173;BME280;69059;52.218;5.172;2023-05-29T03:16:45;101754.53;;;10.35;100.00
65173;BME280;69059;52.218;5.172;2023-05-29T03:19:13;101756.91;;;10.29;100.00
65173;BME280;69059;52.218;5.172;2023-05-29T03:21:41;101764.81;;;10.37;100.00
65173;BME280;69059;52.218;5.172;2023-05-29T03:24:08;101773.28;;;10.39;100.00
65173;BME280;69059;52.218;5.172;2023-05-29T03:26:37;101799.09;;;10.42;100.00
65173;BME280;69059;52.218;5.172;2023-05-29T03:29:06;101805.09;;;10.34;100.00
65173;BME280;69059;52.218;5.172;2023-05-29T03:31:34;101811.13;;;10.35;100.00
65173;BME280;69059;52.218;5.172;2023-05-29T03:34:02;101824.31;;;10.33;100.00
65173;BME280;69059;52.218;5.172;2023-05-29T03:36:30;101832.69;;;10.37;100.00
65173;BME280;69059;52.218;5.172;2023-05-29T03:38:58;101838.03;;;10.35;100.00
65173;BME280;69059;52.218;5.172;2023-05-29T03:41:26;101816.63;;;10.32;100.00
65173;BME280;69059;52.218;5.172;2023-05-29T03:43:54;101816.19;;;10.36;100.00
65173;BME280;69059;52.218;5.172;2023-05-29T03:46:23;101816.94;;;10.29;100.00
65173;BME280;69059;52.218;5.172;2023-05-29T03:48:51;101815.44;;;10.26;100.00
65173;BME280;69059;52.218;5.172;2023-05-29T03:51:18;101806.97;;;10.24;100.00
65173;BME280;69059;52.218;5.172;2023-05-29T03:53:46;101797.25;;;10.17;100.00
65173;BME280;69059;52.218;5.172;2023-05-29T03:56:14;101802.19;;;10.20;100.00
65173;BME280;69059;52.218;5.172;2023-05-29T03:58:42;101808.38;;;10.19;100.00
65173;BME280;69059;52.218;5.172;2023-05-29T04:01:10;101801.09;;;10.22;100.00
65173;BME280;69059;52.218;5.172;2023-05-29T04:03:39;101804.66;;;10.21;100.00
65173;BME280;69059;52.218;5.172;2023-05-29T04:06:07;101819.50;;;10.21;100.00
65173;BME280;69059;52.218;5.172;2023-05-29T04:08:35;101830.59;;;10.23;100.00
65173;BME280;69059;52.218;5.172;2023-05-29T04:11:03;101831.72;;;10.20;100.00
65173;BME280;69059;52.218;5.172;2023-05-29T04:13:31;101856.91;;;10.29;100.00
65173;BME280;69059;52.218;5.172;2023-05-29T04:15:59;101852.97;;;10.25;100.00
65173;BME280;69059;52.218;5.172;2023-05-29T04:18:27;101843.00;;;10.21;100.00
65173;BME280;69059;52.218;5.172;2023-05-29T04:20:56;101847.09;;;10.23;100.00
65173;BME280;69059;52.218;5.172;2023-05-29T04:23:24;101850.66;;;10.22;100.00
65173;BME280;69059;52.218;5.172;2023-05-29T04:25:52;101852.81;;;10.27;100.00
65173;BME280;69059;52.218;5.172;2023-05-29T04:28:20;101864.25;;;10.26;100.00
65173;BME280;69059;52.218;5.172;2023-05-29T04:30:48;101852.59;;;10.20;100.00
65173;BME280;69059;52.218;5.172;2023-05-29T04:33:17;101843.81;;;10.21;100.00
65173;BME280;69059;52.218;5.172;2023-05-29T04:35:47;101847.59;;;10.27;100.00
65173;BME280;69059;52.218;5.172;2023-05-29T04:38:17;101861.16;;;10.30;100.00
65173;BME280;69059;52.218;5.172;2023-05-29T04:40:45;101836.03;;;10.12;100.00
65173;BME280;69059;52.218;5.172;2023-05-29T04:43:14;101869.97;;;10.29;100.00
65173;BME280;69059;52.218;5.172;2023-05-29T04:45:42;101879.28;;;10.32;100.00
65173;BME280;69059;52.218;5.172;2023-05-29T04:48:10;101883.16;;;10.28;100.00
65173;BME280;69059;52.218;5.172;2023-05-29T04:50:38;101892.19;;;10.33;100.00
65173;BME280;69059;52.218;5.172;2023-05-29T04:53:05;101881.06;;;10.31;100.00
65173;BME280;69059;52.218;5.172;2023-05-29T04:55:34;101886.69;;;10.36;100.00
65173;BME280;69059;52.218;5.172;2023-05-29T04:58:02;101886.69;;;10.36;100.00
65173;BME280;69059;52.218;5.172;2023-05-29T05:00:30;101866.47;;;10.38;100.00
65173;BME280;69059;52.218;5.172;2023-05-29T05:02:58;101876.13;;;10.46;100.00
65173;BME280;69059;52.218;5.172;2023-05-29T05:05:26;101890.06;;;10.55;100.00
65173;BME280;69059;52.218;5.172;2023-05-29T05:07:54;101896.63;;;10.59;100.00
65173;BME280;69059;52.218;5.172;2023-05-29T05:10:21;101875.63;;;10.43;100.00
65173;BME280;69059;52.218;5.172;2023-05-29T05:12:51;101923.63;;;10.67;100.00
65173;BME280;69059;52.218;5.172;2023-05-29T05:15:18;101944.88;;;10.72;100.00
65173;BME280;69059;52.218;5.172;2023-05-29T05:17:46;101930.34;;;10.70;100.00
65173;BME280;69059;52.218;5.172;2023-05-29T05:20:14;101926.53;;;10.64;100.00
65173;BME280;69059;52.218;5.172;2023-05-29T05:22:43;101913.38;;;10.74;100.00
65173;BME280;69059;52.218;5.172;2023-05-29T05:25:11;101913.59;;;10.81;100.00
65173;BME280;69059;52.218;5.172;2023-05-29T05:27:38;101921.66;;;10.87;100.00
65173;BME280;69059;52.218;5.172;2023-05-29T05:30:08;101923.06;;;10.82;100.00
65173;BME280;69059;52.218;5.172;2023-05-29T05:32:36;101947.81;;;10.95;100.00
65173;BME280;69059;52.218;5.172;2023-05-29T05:35:05;101959.28;;;11.02;100.00
65173;BME280;69059;52.218;5.172;2023-05-29T05:37:34;101953.00;;;11.13;100.00
65173;BME280;69059;52.218;5.172;2023-05-29T05:40:02;101967.94;;;11.03;100.00
65173;BME280;69059;52.218;5.172;2023-05-29T05:42:32;101957.03;;;11.07;100.00
65173;BME280;69059;52.218;5.172;2023-05-29T05:45:00;101979.22;;;11.29;100.00
65173;BME280;69059;52.218;5.172;2023-05-29T05:47:30;101997.50;;;11.29;100.00
65173;BME280;69059;52.218;5.172;2023-05-29T05:49:58;102005.00;;;11.24;100.00
65173;BME280;69059;52.218;5.172;2023-05-29T05:52:26;101994.84;;;11.21;100.00
65173;BME280;69059;52.218;5.172;2023-05-29T05:54:57;102020.56;;;11.26;100.00
65173;BME280;69059;52.218;5.172;2023-05-29T05:57:25;102041.53;;;11.16;100.00
65173;BME280;69059;52.218;5.172;2023-05-29T05:59:53;102025.16;;;11.32;100.00
65173;BME280;69059;52.218;5.172;2023-05-29T06:02:21;102052.38;;;11.21;100.00
65173;BME280;69059;52.218;5.172;2023-05-29T06:04:50;102058.22;;;11.41;100.00
65173;BME280;69059;52.218;5.172;2023-05-29T06:07:18;102093.13;;;11.58;100.00
65173;BME280;69059;52.218;5.172;2023-05-29T06:09:46;102118.28;;;11.51;100.00
65173;BME280;69059;52.218;5.172;2023-05-29T06:12:15;102127.28;;;11.56;100.00
65173;BME280;69059;52.218;5.172;2023-05-29T06:14:43;102160.44;;;11.73;100.00
65173;BME280;69059;52.218;5.172;2023-05-29T06:17:11;102178.72;;;11.91;100.00
65173;BME280;69059;52.218;5.172;2023-05-29T06:19:39;102201.53;;;11.99;100.00
65173;BME280;69059;52.218;5.172;2023-05-29T06:22:08;102203.09;;;12.17;100.00
65173;BME280;69059;52.218;5.172;2023-05-29T06:24:36;102212.28;;;12.22;100.00
65173;BME280;69059;52.218;5.172;2023-05-29T06:27:04;102214.22;;;12.45;100.00
65173;BME280;69059;52.218;5.172;2023-05-29T06:29:33;102255.66;;;12.50;100.00
65173;BME280;69059;52.218;5.172;2023-05-29T06:32:01;102267.44;;;12.54;100.00
65173;BME280;69059;52.218;5.172;2023-05-29T06:34:29;102298.25;;;12.52;100.00
65173;BME280;69059;52.218;5.172;2023-05-29T06:36:57;102293.84;;;12.52;100.00
65173;BME280;69059;52.218;5.172;2023-05-29T06:39:26;102320.84;;;12.53;100.00
65173;BME280;69059;52.218;5.172;2023-05-29T06:41:53;102324.06;;;12.73;100.00
65173;BME280;69059;52.218;5.172;2023-05-29T06:44:21;102339.25;;;12.69;100.00
65173;BME280;69059;52.218;5.172;2023-05-29T06:46:49;102344.56;;;12.77;100.00
65173;BME280;69059;52.218;5.172;2023-05-29T06:49:17;102332.84;;;12.89;100.00
65173;BME280;69059;52.218;5.172;2023-05-29T06:51:45;102339.44;;;13.02;100.00
65173;BME280;69059;52.218;5.172;2023-05-29T06:54:13;102339.91;;;12.97;100.00
65173;BME280;69059;52.218;5.172;2023-05-29T06:56:42;102373.56;;;13.10;100.00
65173;BME280;69059;52.218;5.172;2023-05-29T06:59:15;102376.75;;;13.21;100.00
65173;BME280;69059;52.218;5.172;2023-05-29T07:01:43;102372.34;;;13.30;100.00
65173;BME280;69059;52.218;5.172;2023-05-29T07:04:11;102388.50;;;13.51;100.00
65173;BME280;69059;52.218;5.172;2023-05-29T07:06:39;102397.56;;;13.81;100.00
65173;BME280;69059;52.218;5.172;2023-05-29T07:09:07;102410.53;;;13.75;100.00
65173;BME280;69059;52.218;5.172;2023-05-29T07:11:35;102416.97;;;13.88;100.00
65173;BME280;69059;52.218;5.172;2023-05-29T07:14:04;102416.97;;;13.96;100.00
65173;BME280;69059;52.218;5.172;2023-05-29T07:16:32;102431.25;;;13.94;100.00
65173;BME280;69059;52.218;5.172;2023-05-29T07:19:00;102444.19;;;13.79;100.00
65173;BME280;69059;52.218;5.172;2023-05-29T07:21:27;102436.47;;;13.86;100.00
65173;BME280;69059;52.218;5.172;2023-05-29T07:23:55;102445.38;;;14.09;100.00
65173;BME280;69059;52.218;5.172;2023-05-29T07:26:23;102445.22;;;14.19;100.00
65173;BME280;69059;52.218;5.172;2023-05-29T07:28:51;102439.00;;;14.36;100.00
65173;BME280;69059;52.218;5.172;2023-05-29T07:31:21;102452.16;;;14.60;100.00
65173;BME280;69059;52.218;5.172;2023-05-29T07:33:49;102452.81;;;14.70;100.00
65173;BME280;69059;52.218;5.172;2023-05-29T07:36:16;102455.09;;;14.90;100.00
65173;BME280;69059;52.218;5.172;2023-05-29T07:38:44;102468.41;;;15.04;100.00
65173;BME280;69059;52.218;5.172;2023-05-29T07:41:15;102468.84;;;15.16;100.00
65173;BME280;69059;52.218;5.172;2023-05-29T07:43:43;102472.78;;;15.20;100.00
65173;BME280;69059;52.218;5.172;2023-05-29T07:46:12;102469.34;;;15.20;100.00
65173;BME280;69059;52.218;5.172;2023-05-29T07:48:41;102479.06;;;15.11;100.00
65173;BME280;69059;52.218;5.172;2023-05-29T07:51:09;102471.44;;;15.32;100.00
65173;BME280;69059;52.218;5.172;2023-05-29T07:53:37;102482.28;;;15.37;100.00
65173;BME280;69059;52.218;5.172;2023-05-29T07:56:05;102503.34;;;15.21;100.00
65173;BME280;69059;52.218;5.172;2023-05-29T07:58:33;102490.31;;;15.36;100.00
65173;BME280;69059;52.218;5.172;2023-05-29T08:01:01;102481.25;;;15.47;100.00
65173;BME280;69059;52.218;5.172;2023-05-29T08:03:29;102482.19;;;15.62;100.00
65173;BME280;69059;52.218;5.172;2023-05-29T08:05:59;102504.09;;;15.54;100.00
65173;BME280;69059;52.218;5.172;2023-05-29T08:08:27;102505.09;;;15.53;100.00
65173;BME280;69059;52.218;5.172;2023-05-29T08:10:55;102502.44;;;15.69;100.00
65173;BME280;69059;52.218;5.172;2023-05-29T08:13:23;102496.47;;;15.75;100.00
65173;BME280;69059;52.218;5.172;2023-05-29T08:15:51;102503.59;;;15.98;100.00
65173;BME280;69059;52.218;5.172;2023-05-29T08:18:19;102504.00;;;16.09;100.00
65173;BME280;69059;52.218;5.172;2023-05-29T08:20:47;102501.75;;;16.29;100.00
65173;BME280;69059;52.218;5.172;2023-05-29T08:23:17;102505.69;;;16.56;100.00
65173;BME280;69059;52.218;5.172;2023-05-29T08:25:44;102517.50;;;16.60;100.00
65173;BME280;69059;52.218;5.172;2023-05-29T08:28:12;102524.75;;;16.66;100.00
65173;BME280;69059;52.218;5.172;2023-05-29T08:30:40;102526.72;;;16.64;100.00
65173;BME280;69059;52.218;5.172;2023-05-29T08:33:08;102513.84;;;16.69;100.00
65173;BME280;69059;52.218;5.172;2023-05-29T08:35:36;102526.78;;;16.33;100.00
65173;BME280;69059;52.218;5.172;2023-05-29T08:38:04;102542.22;;;16.36;100.00
65173;BME280;69059;52.218;5.172;2023-05-29T08:40:34;102528.41;;;16.57;100.00
65173;BME280;69059;52.218;5.172;2023-05-29T08:43:06;102532.34;;;16.99;100.00
65173;BME280;69059;52.218;5.172;2023-05-29T08:45:41;102535.31;;;17.18;100.00
65173;BME280;69059;52.218;5.172;2023-05-29T08:48:10;102546.78;;;17.26;100.00
65173;BME280;69059;52.218;5.172;2023-05-29T08:50:43;102520.84;;;17.73;100.00
65173;BME280;69059;52.218;5.172;2023-05-29T08:53:12;102551.09;;;17.85;100.00
65173;BME280;69059;52.218;5.172;2023-05-29T08:55:41;102544.69;;;17.50;100.00
65173;BME280;69059;52.218;5.172;2023-05-29T08:58:11;102538.31;;;17.30;100.00
65173;BME280;69059;52.218;5.172;2023-05-29T09:00:39;102541.69;;;17.39;100.00
65173;BME280;69059;52.218;5.172;2023-05-29T09:03:07;102549.72;;;17.31;100.00
65173;BME280;69059;52.218;5.172;2023-05-29T09:05:36;102537.78;;;17.20;100.00
65173;BME280;69059;52.218;5.172;2023-05-29T09:08:08;102533.50;;;17.34;100.00
65173;BME280;69059;52.218;5.172;2023-05-29T09:10:39;102539.91;;;17.69;100.00
65173;BME280;69059;52.218;5.172;2023-05-29T09:13:09;102539.72;;;17.85;100.00
65173;BME280;69059;52.218;5.172;2023-05-29T09:15:37;102559.75;;;17.79;100.00
65173;BME280;69059;52.218;5.172;2023-05-29T09:18:06;102557.34;;;17.99;100.00
65173;BME280;69059;52.218;5.172;2023-05-29T09:20:35;102552.53;;;17.88;100.00
65173;BME280;69059;52.218;5.172;2023-05-29T09:23:05;102553.38;;;17.74;100.00
65173;BME280;69059;52.218;5.172;2023-05-29T09:25:35;102548.34;;;17.94;100.00
65173;BME280;69059;52.218;5.172;2023-05-29T09:28:06;102526.66;;;17.98;100.00
65173;BME280;69059;52.218;5.172;2023-05-29T09:30:38;102553.41;;;18.10;100.00
65173;BME280;69059;52.218;5.172;2023-05-29T09:33:08;102550.97;;;17.94;100.00
65173;BME280;69059;52.218;5.172;2023-05-29T09:35:37;102538.72;;;18.22;100.00
65173;BME280;69059;52.218;5.172;2023-05-29T09:38:07;102545.13;;;18.34;100.00
65173;BME280;69059;52.218;5.172;2023-05-29T09:40:38;102553.59;;;18.08;100.00
65173;BME280;69059;52.218;5.172;2023-05-29T09:43:11;102561.78;;;18.13;100.00
65173;BME280;69059;52.218;5.172;2023-05-29T09:45:41;102549.53;;;18.27;100.00
65173;BME280;69059;52.218;5.172;2023-05-29T09:48:12;102559.09;;;18.49;100.00
65173;BME280;69059;52.218;5.172;2023-05-29T09:50:41;102546.31;;;18.32;100.00
65173;BME280;69059;52.218;5.172;2023-05-29T09:53:18;102547.13;;;18.68;100.00
65173;BME280;69059;52.218;5.172;2023-05-29T09:55:46;102562.97;;;18.68;100.00
65173;BME280;69059;52.218;5.172;2023-05-29T09:58:15;102569.25;;;18.46;100.00
65173;BME280;69059;52.218;5.172;2023-05-29T10:00:45;102554.13;;;18.40;100.00
65173;BME280;69059;52.218;5.172;2023-05-29T10:03:14;102556.66;;;18.48;100.00
65173;BME280;69059;52.218;5.172;2023-05-29T10:05:47;102556.69;;;18.69;100.00
65173;BME280;69059;52.218;5.172;2023-05-29T10:08:18;102547.81;;;18.19;100.00
65173;BME280;69059;52.218;5.172;2023-05-29T10:10:49;102532.28;;;18.52;100.00
65173;BME280;69059;52.218;5.172;2023-05-29T10:13:18;102525.56;;;18.71;100.00
65173;BME280;69059;52.218;5.172;2023-05-29T10:15:49;102534.75;;;19.03;100.00
65173;BME280;69059;52.218;5.172;2023-05-29T10:18:24;102534.41;;;19.13;100.00
65173;BME280;69059;52.218;5.172;2023-05-29T10:20:53;102535.88;;;19.15;100.00
65173;BME280;69059;52.218;5.172;2023-05-29T10:23:25;102517.16;;;18.89;100.00
65173;BME280;69059;52.218;5.172;2023-05-29T10:26:07;102533.41;;;19.14;100.00
65173;BME280;69059;52.218;5.172;2023-05-29T10:28:39;102539.81;;;19.26;100.00
65173;BME280;69059;52.218;5.172;2023-05-29T10:31:15;102532.50;;;19.00;100.00
65173;BME280;69059;52.218;5.172;2023-05-29T10:33:56;102509.28;;;18.95;100.00
65173;BME280;69059;52.218;5.172;2023-05-29T10:36:30;102511.41;;;19.13;100.00
65173;BME280;69059;52.218;5.172;2023-05-29T10:39:03;102532.75;;;19.05;100.00
65173;BME280;69059;52.218;5.172;2023-05-29T10:41:31;102534.28;;;18.93;100.00
65173;BME280;69059;52.218;5.172;2023-05-29T10:44:01;102506.50;;;19.45;100.00
65173;BME280;69059;52.218;5.172;2023-05-29T10:49:36;102513.06;;;19.96;100.00
65173;BME280;69059;52.218;5.172;2023-05-29T10:52:05;102524.34;;;20.18;100.00
65173;BME280;69059;52.218;5.172;2023-05-29T10:54:51;102519.81;;;19.99;100.00
65173;BME280;69059;52.218;5.172;2023-05-29T10:57:23;102515.28;;;19.86;100.00
65173;BME280;69059;52.218;5.172;2023-05-29T11:00:06;102514.50;;;19.99;100.00
65173;BME280;69059;52.218;5.172;2023-05-29T11:02:40;102517.13;;;19.92;100.00
65173;BME280;69059;52.218;5.172;2023-05-29T11:05:23;102521.25;;;20.15;100.00
65173;BME280;69059;52.218;5.172;2023-05-29T11:07:54;102525.72;;;20.01;100.00
65173;BME280;69059;52.218;5.172;2023-05-29T11:10:55;102538.78;;;20.09;100.00
65173;BME280;69059;52.218;5.172;2023-05-29T11:13:25;102519.31;;;20.50;100.00
65173;BME280;69059;52.218;5.172;2023-05-29T11:16:13;102535.63;;;20.53;100.00
65173;BME280;69059;52.218;5.172;2023-05-29T11:18:42;102514.59;;;20.65;100.00
65173;BME280;69059;52.218;5.172;2023-05-29T11:21:30;102514.19;;;20.94;100.00
65173;BME280;69059;52.218;5.172;2023-05-29T11:24:00;102515.41;;;20.98;100.00
65173;BME280;69059;52.218;5.172;2023-05-29T11:26:36;102505.59;;;21.19;100.00
65173;BME280;69059;52.218;5.172;2023-05-29T11:29:05;102520.25;;;21.41;100.00
65173;BME280;69059;52.218;5.172;2023-05-29T11:31:39;102526.56;;;21.47;100.00
65173;BME280;69059;52.218;5.172;2023-05-29T11:34:09;102530.31;;;21.26;100.00
65173;BME280;69059;52.218;5.172;2023-05-29T11:36:40;102518.69;;;21.27;100.00
65173;BME280;69059;52.218;5.172;2023-05-29T11:39:10;102541.75;;;20.93;100.00
65173;BME280;69059;52.218;5.172;2023-05-29T11:41:38;102533.34;;;21.36;100.00
65173;BME280;69059;52.218;5.172;2023-05-29T11:44:05;102541.66;;;21.59;100.00
65173;BME280;69059;52.218;5.172;2023-05-29T11:46:33;102553.19;;;21.33;100.00
65173;BME280;69059;52.218;5.172;2023-05-29T11:49:01;102542.97;;;21.10;100.00
65173;BME280;69059;52.218;5.172;2023-05-29T11:51:29;102537.66;;;21.30;100.00
65173;BME280;69059;52.218;5.172;2023-05-29T11:53:58;102542.31;;;21.41;100.00
65173;BME280;69059;52.218;5.172;2023-05-29T11:56:27;102544.22;;;21.86;100.00
65173;BME280;69059;52.218;5.172;2023-05-29T11:58:55;102567.75;;;21.82;100.00
65173;BME280;69059;52.218;5.172;2023-05-29T12:01:26;102541.28;;;21.49;100.00
65173;BME280;69059;52.218;5.172;2023-05-29T12:03:55;102545.53;;;21.63;100.00
65173;BME280;69059;52.218;5.172;2023-05-29T12:06:32;102537.78;;;21.62;100.00
65173;BME280;69059;52.218;5.172;2023-05-29T12:09:02;102533.50;;;22.05;100.00
65173;BME280;69059;52.218;5.172;2023-05-29T12:11:31;102544.53;;;22.09;100.00
65173;BME280;69059;52.218;5.172;2023-05-29T12:14:01;102543.66;;;21.77;100.00
65173;BME280;69059;52.218;5.172;2023-05-29T12:16:30;102520.88;;;21.88;100.00
65173;BME280;69059;52.218;5.172;2023-05-29T12:19:00;102539.59;;;22.12;100.00
65173;BME280;69059;52.218;5.172;2023-05-29T12:21:28;102522.88;;;22.37;100.00
65173;BME280;69059;52.218;5.172;2023-05-29T12:23:56;102537.69;;;22.82;100.00
65173;BME280;69059;52.218;5.172;2023-05-29T12:26:41;102521.06;;;22.87;100.00
65173;BME280;69059;52.218;5.172;2023-05-29T12:29:10;102511.13;;;22.76;100.00
65173;BME280;69059;52.218;5.172;2023-05-29T12:31:37;102539.81;;;22.67;100.00
65173;BME280;69059;52.218;5.172;2023-05-29T12:34:08;102544.16;;;22.37;100.00
65173;BME280;69059;52.218;5.172;2023-05-29T12:36:39;102523.84;;;22.42;100.00
65173;BME280;69059;52.218;5.172;2023-05-29T12:39:07;102507.53;;;22.32;100.00
65173;BME280;69059;52.218;5.172;2023-05-29T12:41:37;102520.97;;;22.44;100.00
65173;BME280;69059;52.218;5.172;2023-05-29T12:44:07;102535.38;;;23.11;100.00
65173;BME280;69059;52.218;5.172;2023-05-29T12:46:38;102537.97;;;22.11;100.00
65173;BME280;69059;52.218;5.172;2023-05-29T12:49:12;102524.06;;;22.09;100.00
65173;BME280;69059;52.218;5.172;2023-05-29T12:51:41;102511.34;;;22.68;100.00
65173;BME280;69059;52.218;5.172;2023-05-29T12:54:10;102512.41;;;22.92;100.00
65173;BME280;69059;52.218;5.172;2023-05-29T12:56:38;102517.09;;;23.33;100.00